sensor_id;sensor_type;location;lat;lon;timestamp;P1;durP1;ratioP1;P2;durP2;ratioP2
78344;SDS011;67620;51.134;6.548;2023-05-07T00:02:43;6.75;;;5.82;;
78344;SDS011;67620;51.134;6.548;2023-05-07T00:07:35;9.00;;;6.30;;
78344;SDS011;67620;51.134;6.548;2023-05-07T00:10:01;10.75;;;5.50;;
78344;SDS011;67620;51.134;6.548;2023-05-07T00:12:27;8.10;;;6.45;;
78344;SDS011;67620;51.134;6.548;2023-05-07T00:14:55;8.02;;;6.22;;
78344;SDS011;67620;51.134;6.548;2023-05-07T00:19:46;8.35;;;5.72;;
78344;SDS011;67620;51.134;6.548;2023-05-07T00:24:37;7.97;;;6.22;;
78344;SDS011;67620;51.134;6.548;2023-05-07T00:29:27;7.85;;;6.28;;
78344;SDS011;67620;51.134;6.548;2023-05-07T00:34:19;7.13;;;6.22;;
78344;SDS011;67620;51.134;6.548;2023-05-07T00:39:10;9.15;;;6.57;;
78344;SDS011;67620;51.134;6.548;2023-05-07T00:41:36;9.02;;;6.97;;
78344;SDS011;67620;51.134;6.548;2023-05-07T00:44:02;7.55;;;6.32;;
78344;SDS011;67620;51.134;6.548;2023-05-07T00:48:53;9.00;;;6.20;;
78344;SDS011;67620;51.134;6.548;2023-05-07T00:53:44;10.20;;;7.20;;
78344;SDS011;67620;51.134;6.548;2023-05-07T00:56:11;7.93;;;6.90;;
78344;SDS011;67620;51.134;6.548;2023-05-07T01:01:02;8.48;;;6.85;;
78344;SDS011;67620;51.134;6.548;2023-05-07T01:03:28;8.98;;;6.22;;
78344;SDS011;67620;51.134;6.548;2023-05-07T01:08:19;8.60;;;6.22;;
78344;SDS011;67620;51.134;6.548;2023-05-07T01:10:46;8.38;;;6.13;;
78344;SDS011;67620;51.134;6.548;2023-05-07T01:15:39;8.02;;;6.25;;
78344;SDS011;67620;51.134;6.548;2023-05-07T01:18:06;7.82;;;6.35;;
78344;SDS011;67620;51.134;6.548;2023-05-07T01:20:32;7.43;;;6.45;;
78344;SDS011;67620;51.134;6.548;2023-05-07T01:25:23;8.88;;;7.18;;
78344;SDS011;67620;51.134;6.548;2023-05-07T01:30:15;8.43;;;7.00;;
78344;SDS011;67620;51.134;6.548;2023-05-07T01:32:52;10.63;;;7.45;;
78344;SDS011;67620;51.134;6.548;2023-05-07T01:35:24;8.27;;;6.93;;
78344;SDS011;67620;51.134;6.548;2023-05-07T01:37:53;7.18;;;6.20;;
78344;SDS011;67620;51.134;6.548;2023-05-07T01:40:20;10.75;;;6.82;;
78344;SDS011;67620;51.134;6.548;2023-05-07T01:42:46;8.18;;;7.32;;
78344;SDS011;67620;51.134;6.548;2023-05-07T01:45:13;8.30;;;6.97;;
78344;SDS011;67620;51.134;6.548;2023-05-07T01:50:07;8.00;;;6.30;;
78344;SDS011;67620;51.134;6.548;2023-05-07T01:52:34;8.65;;;6.53;;
78344;SDS011;67620;51.134;6.548;2023-05-07T01:55:02;9.07;;;7.05;;
78344;SDS011;67620;51.134;6.548;2023-05-07T01:59:53;8.25;;;6.53;;
78344;SDS011;67620;51.134;6.548;2023-05-07T02:04:44;8.25;;;6.60;;
78344;SDS011;67620;51.134;6.548;2023-05-07T02:07:10;10.45;;;7.03;;
78344;SDS011;67620;51.134;6.548;2023-05-07T02:12:01;8.77;;;6.80;;
78344;SDS011;67620;51.134;6.548;2023-05-07T02:16:52;9.38;;;7.22;;
78344;SDS011;67620;51.134;6.548;2023-05-07T02:19:17;10.35;;;6.97;;
78344;SDS011;67620;51.134;6.548;2023-05-07T02:24:08;8.13;;;6.65;;
78344;SDS011;67620;51.134;6.548;2023-05-07T02:28:59;9.30;;;7.22;;
78344;SDS011;67620;51.134;6.548;2023-05-07T02:31:25;9.35;;;6.82;;
78344;SDS011;67620;51.134;6.548;2023-05-07T02:33:50;8.25;;;6.55;;
78344;SDS011;67620;51.134;6.548;2023-05-07T02:36:16;9.25;;;6.68;;
78344;SDS011;67620;51.134;6.548;2023-05-07T02:41:07;8.25;;;6.55;;
78344;SDS011;67620;51.134;6.548;2023-05-07T02:46:04;8.00;;;7.05;;
78344;SDS011;67620;51.134;6.548;2023-05-07T02:48:31;10.70;;;7.55;;
78344;SDS011;67620;51.134;6.548;2023-05-07T02:53:23;6.65;;;5.95;;
78344;SDS011;67620;51.134;6.548;2023-05-07T02:55:51;8.27;;;6.97;;
78344;SDS011;67620;51.134;6.548;2023-05-07T02:58:20;8.00;;;6.68;;
78344;SDS011;67620;51.134;6.548;2023-05-07T03:03:11;6.57;;;5.63;;
78344;SDS011;67620;51.134;6.548;2023-05-07T03:05:36;6.78;;;6.18;;
78344;SDS011;67620;51.134;6.548;2023-05-07T03:10:28;7.07;;;6.30;;
78344;SDS011;67620;51.134;6.548;2023-05-07T03:15:20;7.95;;;6.45;;
78344;SDS011;67620;51.134;6.548;2023-05-07T03:17:46;8.75;;;5.95;;
78344;SDS011;67620;51.134;6.548;2023-05-07T03:22:38;9.38;;;5.80;;
78344;SDS011;67620;51.134;6.548;2023-05-07T03:25:03;6.45;;;5.70;;
78344;SDS011;67620;51.134;6.548;2023-05-07T03:27:29;7.20;;;6.00;;
78344;SDS011;67620;51.134;6.548;2023-05-07T03:32:20;8.60;;;6.05;;
78344;SDS011;67620;51.134;6.548;2023-05-07T03:34:46;6.63;;;5.60;;
78344;SDS011;67620;51.134;6.548;2023-05-07T03:39:37;7.05;;;5.38;;
78344;SDS011;67620;51.134;6.548;2023-05-07T03:44:28;8.23;;;5.68;;
78344;SDS011;67620;51.134;6.548;2023-05-07T03:49:20;6.22;;;5.32;;
78344;SDS011;67620;51.134;6.548;2023-05-07T03:54:11;6.32;;;5.38;;
78344;SDS011;67620;51.134;6.548;2023-05-07T03:56:37;7.25;;;5.40;;
78344;SDS011;67620;51.134;6.548;2023-05-07T04:01:28;5.55;;;5.00;;
78344;SDS011;67620;51.134;6.548;2023-05-07T04:06:19;9.77;;;5.65;;
78344;SDS011;67620;51.134;6.548;2023-05-07T04:08:44;8.05;;;5.20;;
78344;SDS011;67620;51.134;6.548;2023-05-07T04:11:10;7.40;;;6.35;;
78344;SDS011;67620;51.134;6.548;2023-05-07T04:13:35;6.75;;;5.97;;
78344;SDS011;67620;51.134;6.548;2023-05-07T04:16:01;6.75;;;6.00;;
78344;SDS011;67620;51.134;6.548;2023-05-07T04:18:28;7.50;;;5.53;;
78344;SDS011;67620;51.134;6.548;2023-05-07T04:20:54;6.88;;;6.18;;
78344;SDS011;67620;51.134;6.548;2023-05-07T04:23:19;7.32;;;5.90;;
78344;SDS011;67620;51.134;6.548;2023-05-07T04:28:11;6.70;;;5.97;;
78344;SDS011;67620;51.134;6.548;2023-05-07T04:30:37;6.70;;;6.00;;
78344;SDS011;67620;51.134;6.548;2023-05-07T04:33:03;8.02;;;5.95;;
78344;SDS011;67620;51.134;6.548;2023-05-07T04:35:28;8.25;;;6.93;;
78344;SDS011;67620;51.134;6.548;2023-05-07T04:37:54;7.38;;;6.57;;
78344;SDS011;67620;51.134;6.548;2023-05-07T04:40:19;8.48;;;6.18;;
78344;SDS011;67620;51.134;6.548;2023-05-07T04:45:10;6.63;;;5.93;;
78344;SDS011;67620;51.134;6.548;2023-05-07T04:47:37;7.30;;;5.45;;
78344;SDS011;67620;51.134;6.548;2023-05-07T04:50:03;7.18;;;5.40;;
78344;SDS011;67620;51.134;6.548;2023-05-07T04:52:29;6.20;;;5.60;;
78344;SDS011;67620;51.134;6.548;2023-05-07T04:54:54;7.60;;;5.50;;
78344;SDS011;67620;51.134;6.548;2023-05-07T04:59:46;7.53;;;5.07;;
78344;SDS011;67620;51.134;6.548;2023-05-07T05:02:11;6.93;;;5.45;;
78344;SDS011;67620;51.134;6.548;2023-05-07T05:07:02;7.97;;;5.60;;
78344;SDS011;67620;51.134;6.548;2023-05-07T05:09:31;7.00;;;5.38;;
78344;SDS011;67620;51.134;6.548;2023-05-07T05:14:21;7.05;;;5.30;;
78344;SDS011;67620;51.134;6.548;2023-05-07T05:19:12;6.72;;;4.82;;
78344;SDS011;67620;51.134;6.548;2023-05-07T05:21:38;5.43;;;4.78;;
78344;SDS011;67620;51.134;6.548;2023-05-07T05:24:03;8.05;;;5.20;;
78344;SDS011;67620;51.134;6.548;2023-05-07T05:28:55;7.28;;;5.05;;
78344;SDS011;67620;51.134;6.548;2023-05-07T05:31:20;7.40;;;4.88;;
78344;SDS011;67620;51.134;6.548;2023-05-07T05:36:11;6.00;;;4.97;;
78344;SDS011;67620;51.134;6.548;2023-05-07T05:38:38;7.93;;;4.72;;
78344;SDS011;67620;51.134;6.548;2023-05-07T05:41:03;7.03;;;5.05;;
78344;SDS011;67620;51.134;6.548;2023-05-07T05:43:29;11.05;;;4.97;;
78344;SDS011;67620;51.134;6.548;2023-05-07T05:45:55;6.10;;;5.07;;
78344;SDS011;67620;51.134;6.548;2023-05-07T05:48:21;6.72;;;5.15;;
78344;SDS011;67620;51.134;6.548;2023-05-07T05:53:13;5.80;;;4.75;;
78344;SDS011;67620;51.134;6.548;2023-05-07T05:58:04;5.68;;;4.38;;
78344;SDS011;67620;51.134;6.548;2023-05-07T06:00:29;7.38;;;5.03;;
78344;SDS011;67620;51.134;6.548;2023-05-07T06:05:21;7.15;;;4.70;;
78344;SDS011;67620;51.134;6.548;2023-05-07T06:10:12;7.53;;;4.50;;
78344;SDS011;67620;51.134;6.548;2023-05-07T06:12:37;6.15;;;4.50;;
78344;SDS011;67620;51.134;6.548;2023-05-07T06:15:03;4.57;;;4.05;;
78344;SDS011;67620;51.134;6.548;2023-05-07T06:17:29;4.85;;;4.03;;
78344;SDS011;67620;51.134;6.548;2023-05-07T06:22:20;8.23;;;4.57;;
78344;SDS011;67620;51.134;6.548;2023-05-07T06:27:12;4.90;;;3.95;;
78344;SDS011;67620;51.134;6.548;2023-05-07T06:32:06;4.60;;;3.92;;
78344;SDS011;67620;51.134;6.548;2023-05-07T06:34:33;4.63;;;3.20;;
78344;SDS011;67620;51.134;6.548;2023-05-07T06:39:24;4.70;;;3.92;;
78344;SDS011;67620;51.134;6.548;2023-05-07T06:44:15;5.20;;;3.60;;
78344;SDS011;67620;51.134;6.548;2023-05-07T06:46:40;5.72;;;3.65;;
78344;SDS011;67620;51.134;6.548;2023-05-07T06:49:06;4.47;;;3.80;;
78344;SDS011;67620;51.134;6.548;2023-05-07T06:51:33;3.92;;;3.45;;
78344;SDS011;67620;51.134;6.548;2023-05-07T06:56:24;5.25;;;3.70;;
78344;SDS011;67620;51.134;6.548;2023-05-07T07:01:15;8.70;;;5.60;;
78344;SDS011;67620;51.134;6.548;2023-05-07T07:03:41;5.10;;;3.55;;
78344;SDS011;67620;51.134;6.548;2023-05-07T07:06:06;4.72;;;3.65;;
78344;SDS011;67620;51.134;6.548;2023-05-07T07:10:58;5.10;;;4.25;;
78344;SDS011;67620;51.134;6.548;2023-05-07T07:15:48;4.88;;;4.35;;
78344;SDS011;67620;51.134;6.548;2023-05-07T07:18:14;5.35;;;4.18;;
78344;SDS011;67620;51.134;6.548;2023-05-07T07:20:40;4.85;;;4.32;;
78344;SDS011;67620;51.134;6.548;2023-05-07T07:23:05;5.70;;;4.30;;
78344;SDS011;67620;51.134;6.548;2023-05-07T07:27:57;5.63;;;4.20;;
78344;SDS011;67620;51.134;6.548;2023-05-07T07:30:22;12.40;;;9.75;;
78344;SDS011;67620;51.134;6.548;2023-05-07T07:35:13;7.25;;;4.90;;
78344;SDS011;67620;51.134;6.548;2023-05-07T07:37:39;6.50;;;4.50;;
78344;SDS011;67620;51.134;6.548;2023-05-07T07:42:30;5.93;;;4.60;;
78344;SDS011;67620;51.134;6.548;2023-05-07T07:47:22;6.53;;;5.00;;
78344;SDS011;67620;51.134;6.548;2023-05-07T07:52:13;6.50;;;4.75;;
78344;SDS011;67620;51.134;6.548;2023-05-07T07:57:04;7.97;;;4.15;;
78344;SDS011;67620;51.134;6.548;2023-05-07T07:59:30;6.30;;;4.57;;
78344;SDS011;67620;51.134;6.548;2023-05-07T08:04:21;5.78;;;4.18;;
78344;SDS011;67620;51.134;6.548;2023-05-07T08:09:13;6.68;;;4.32;;
78344;SDS011;67620;51.134;6.548;2023-05-07T08:14:04;5.55;;;4.45;;
78344;SDS011;67620;51.134;6.548;2023-05-07T08:16:30;7.88;;;5.13;;
78344;SDS011;67620;51.134;6.548;2023-05-07T08:21:21;7.13;;;4.95;;
78344;SDS011;67620;51.134;6.548;2023-05-07T08:23:47;5.68;;;4.55;;
78344;SDS011;67620;51.134;6.548;2023-05-07T08:28:38;6.07;;;4.78;;
78344;SDS011;67620;51.134;6.548;2023-05-07T08:31:04;5.13;;;4.40;;
78344;SDS011;67620;51.134;6.548;2023-05-07T08:35:56;6.13;;;3.25;;
78344;SDS011;67620;51.134;6.548;2023-05-07T08:38:21;4.68;;;3.22;;
78344;SDS011;67620;51.134;6.548;2023-05-07T08:40:47;4.15;;;3.60;;
78344;SDS011;67620;51.134;6.548;2023-05-07T08:45:39;18.17;;;8.57;;
78344;SDS011;67620;51.134;6.548;2023-05-07T08:48:08;17.20;;;9.25;;
78344;SDS011;67620;51.134;6.548;2023-05-07T08:50:39;24.30;;;12.20;;
78344;SDS011;67620;51.134;6.548;2023-05-07T08:53:04;24.98;;;12.75;;
78344;SDS011;67620;51.134;6.548;2023-05-07T08:57:56;27.52;;;13.10;;
78344;SDS011;67620;51.134;6.548;2023-05-07T09:02:47;9.52;;;5.28;;
78344;SDS011;67620;51.134;6.548;2023-05-07T09:07:38;8.73;;;5.72;;
78344;SDS011;67620;51.134;6.548;2023-05-07T09:10:04;6.55;;;3.88;;
78344;SDS011;67620;51.134;6.548;2023-05-07T09:12:31;9.60;;;5.30;;
78344;SDS011;67620;51.134;6.548;2023-05-07T09:14:56;8.48;;;5.07;;
78344;SDS011;67620;51.134;6.548;2023-05-07T09:17:22;9.50;;;4.90;;
78344;SDS011;67620;51.134;6.548;2023-05-07T09:22:13;8.95;;;4.60;;
78344;SDS011;67620;51.134;6.548;2023-05-07T09:27:05;5.35;;;3.67;;
78344;SDS011;67620;51.134;6.548;2023-05-07T09:29:33;3.78;;;2.55;;
78344;SDS011;67620;51.134;6.548;2023-05-07T09:32:02;4.40;;;2.67;;
78344;SDS011;67620;51.134;6.548;2023-05-07T09:34:32;3.13;;;2.50;;
78344;SDS011;67620;51.134;6.548;2023-05-07T09:37:01;4.13;;;2.20;;
78344;SDS011;67620;51.134;6.548;2023-05-07T09:39:38;4.00;;;2.45;;
78344;SDS011;67620;51.134;6.548;2023-05-07T09:42:07;4.18;;;1.80;;
78344;SDS011;67620;51.134;6.548;2023-05-07T09:44:33;2.55;;;1.60;;
78344;SDS011;67620;51.134;6.548;2023-05-07T09:46:59;3.63;;;2.08;;
78344;SDS011;67620;51.134;6.548;2023-05-07T09:49:26;2.35;;;1.98;;
78344;SDS011;67620;51.134;6.548;2023-05-07T09:51:55;3.00;;;1.85;;
78344;SDS011;67620;51.134;6.548;2023-05-07T09:54:21;3.45;;;1.90;;
78344;SDS011;67620;51.134;6.548;2023-05-07T09:56:48;4.90;;;2.47;;
78344;SDS011;67620;51.134;6.548;2023-05-07T09:59:14;7.05;;;3.65;;
78344;SDS011;67620;51.134;6.548;2023-05-07T10:01:41;4.75;;;2.75;;
78344;SDS011;67620;51.134;6.548;2023-05-07T10:04:08;4.15;;;2.25;;
78344;SDS011;67620;51.134;6.548;2023-05-07T10:06:34;3.63;;;2.05;;
78344;SDS011;67620;51.134;6.548;2023-05-07T10:09:00;2.50;;;2.10;;
78344;SDS011;67620;51.134;6.548;2023-05-07T10:11:27;5.50;;;2.85;;
78344;SDS011;67620;51.134;6.548;2023-05-07T10:13:53;7.15;;;3.70;;
78344;SDS011;67620;51.134;6.548;2023-05-07T10:16:19;6.95;;;3.92;;
78344;SDS011;67620;51.134;6.548;2023-05-07T10:18:46;6.35;;;3.70;;
78344;SDS011;67620;51.134;6.548;2023-05-07T10:21:17;6.20;;;2.97;;
78344;SDS011;67620;51.134;6.548;2023-05-07T10:23:57;6.53;;;3.80;;
78344;SDS011;67620;51.134;6.548;2023-05-07T10:26:25;5.82;;;3.90;;
78344;SDS011;67620;51.134;6.548;2023-05-07T10:28:56;7.47;;;2.63;;
78344;SDS011;67620;51.134;6.548;2023-05-07T10:31:35;2.70;;;1.65;;
78344;SDS011;67620;51.134;6.548;2023-05-07T10:34:23;2.42;;;1.88;;
78344;SDS011;67620;51.134;6.548;2023-05-07T10:36:52;1.83;;;1.40;;
78344;SDS011;67620;51.134;6.548;2023-05-07T10:39:19;1.60;;;1.25;;
78344;SDS011;67620;51.134;6.548;2023-05-07T10:41:46;7.60;;;1.73;;
78344;SDS011;67620;51.134;6.548;2023-05-07T10:44:24;2.53;;;1.30;;
78344;SDS011;67620;51.134;6.548;2023-05-07T10:47:10;2.17;;;1.40;;
78344;SDS011;67620;51.134;6.548;2023-05-07T10:49:52;2.08;;;1.67;;
78344;SDS011;67620;51.134;6.548;2023-05-07T10:52:31;1.90;;;1.40;;
78344;SDS011;67620;51.134;6.548;2023-05-07T10:57:42;6.05;;;2.13;;
78344;SDS011;67620;51.134;6.548;2023-05-07T11:05:31;3.50;;;1.73;;
78344;SDS011;67620;51.134;6.548;2023-05-07T11:07:58;3.92;;;1.90;;
78344;SDS011;67620;51.134;6.548;2023-05-07T11:13:17;3.17;;;1.70;;
78344;SDS011;67620;51.134;6.548;2023-05-07T11:15:44;2.70;;;1.63;;
78344;SDS011;67620;51.134;6.548;2023-05-07T11:18:12;3.78;;;2.10;;
78344;SDS011;67620;51.134;6.548;2023-05-07T11:26:02;2.42;;;1.42;;
78344;SDS011;67620;51.134;6.548;2023-05-07T11:28:39;3.35;;;2.13;;
78344;SDS011;67620;51.134;6.548;2023-05-07T11:31:06;2.70;;;2.00;;
78344;SDS011;67620;51.134;6.548;2023-05-07T11:33:33;2.95;;;1.55;;
78344;SDS011;67620;51.134;6.548;2023-05-07T11:35:59;3.25;;;1.70;;
78344;SDS011;67620;51.134;6.548;2023-05-07T11:38:26;2.65;;;1.67;;
78344;SDS011;67620;51.134;6.548;2023-05-07T11:40:55;3.25;;;1.52;;
78344;SDS011;67620;51.134;6.548;2023-05-07T11:43:22;3.25;;;1.77;;
78344;SDS011;67620;51.134;6.548;2023-05-07T11:45:47;6.40;;;3.45;;
78344;SDS011;67620;51.134;6.548;2023-05-07T11:48:14;3.28;;;2.00;;
78344;SDS011;67620;51.134;6.548;2023-05-07T11:50:50;6.68;;;3.00;;
78344;SDS011;67620;51.134;6.548;2023-05-07T11:53:17;5.45;;;1.98;;
78344;SDS011;67620;51.134;6.548;2023-05-07T11:55:44;3.00;;;1.98;;
78344;SDS011;67620;51.134;6.548;2023-05-07T11:58:12;2.63;;;1.88;;
78344;SDS011;67620;51.134;6.548;2023-05-07T12:00:49;3.03;;;1.40;;
78344;SDS011;67620;51.134;6.548;2023-05-07T12:03:17;2.75;;;1.80;;
78344;SDS011;67620;51.134;6.548;2023-05-07T12:05:44;2.85;;;1.70;;
78344;SDS011;67620;51.134;6.548;2023-05-07T12:08:14;4.65;;;2.10;;
78344;SDS011;67620;51.134;6.548;2023-05-07T12:10:43;2.17;;;1.55;;
78344;SDS011;67620;51.134;6.548;2023-05-07T12:13:16;3.67;;;1.65;;
78344;SDS011;67620;51.134;6.548;2023-05-07T12:15:43;4.18;;;2.00;;
78344;SDS011;67620;51.134;6.548;2023-05-07T12:18:08;3.53;;;1.77;;
78344;SDS011;67620;51.134;6.548;2023-05-07T12:20:35;2.83;;;1.80;;
78344;SDS011;67620;51.134;6.548;2023-05-07T12:23:01;3.80;;;1.90;;
78344;SDS011;67620;51.134;6.548;2023-05-07T12:25:31;2.83;;;1.48;;
78344;SDS011;67620;51.134;6.548;2023-05-07T12:27:57;3.55;;;2.38;;
78344;SDS011;67620;51.134;6.548;2023-05-07T12:30:25;4.18;;;1.48;;
78344;SDS011;67620;51.134;6.548;2023-05-07T12:32:53;3.45;;;1.52;;
78344;SDS011;67620;51.134;6.548;2023-05-07T12:35:30;3.08;;;1.40;;
78344;SDS011;67620;51.134;6.548;2023-05-07T12:38:00;2.88;;;1.60;;
78344;SDS011;67620;51.134;6.548;2023-05-07T12:40:48;3.60;;;1.85;;
78344;SDS011;67620;51.134;6.548;2023-05-07T12:43:18;3.78;;;2.00;;
78344;SDS011;67620;51.134;6.548;2023-05-07T12:45:46;3.97;;;1.60;;
78344;SDS011;67620;51.134;6.548;2023-05-07T12:48:13;3.00;;;1.67;;
78344;SDS011;67620;51.134;6.548;2023-05-07T12:50:39;4.35;;;2.05;;
78344;SDS011;67620;51.134;6.548;2023-05-07T12:53:05;3.67;;;2.00;;
78344;SDS011;67620;51.134;6.548;2023-05-07T12:55:34;3.10;;;1.80;;
78344;SDS011;67620;51.134;6.548;2023-05-07T12:58:19;3.92;;;1.77;;
78344;SDS011;67620;51.134;6.548;2023-05-07T13:00:55;2.65;;;1.90;;
78344;SDS011;67620;51.134;6.548;2023-05-07T13:03:24;3.88;;;2.40;;
78344;SDS011;67620;51.134;6.548;2023-05-07T13:05:59;6.32;;;2.40;;
78344;SDS011;67620;51.134;6.548;2023-05-07T13:08:36;5.18;;;2.30;;
78344;SDS011;67620;51.134;6.548;2023-05-07T13:11:03;3.72;;;1.75;;
78344;SDS011;67620;51.134;6.548;2023-05-07T13:13:33;5.57;;;2.50;;
78344;SDS011;67620;51.134;6.548;2023-05-07T13:16:00;4.30;;;2.10;;
78344;SDS011;67620;51.134;6.548;2023-05-07T13:18:26;2.28;;;1.83;;
78344;SDS011;67620;51.134;6.548;2023-05-07T13:20:53;2.40;;;1.92;;
78344;SDS011;67620;51.134;6.548;2023-05-07T13:23:19;3.35;;;2.10;;
78344;SDS011;67620;51.134;6.548;2023-05-07T13:25:45;4.05;;;2.33;;
78344;SDS011;67620;51.134;6.548;2023-05-07T13:28:10;3.50;;;2.00;;
78344;SDS011;67620;51.134;6.548;2023-05-07T13:30:36;4.72;;;2.03;;
78344;SDS011;67620;51.134;6.548;2023-05-07T13:33:02;4.28;;;2.00;;
78344;SDS011;67620;51.134;6.548;2023-05-07T13:35:28;5.15;;;2.33;;
78344;SDS011;67620;51.134;6.548;2023-05-07T13:37:53;5.15;;;2.30;;
78344;SDS011;67620;51.134;6.548;2023-05-07T13:40:20;3.03;;;2.13;;
78344;SDS011;67620;51.134;6.548;2023-05-07T13:42:46;4.00;;;2.63;;
78344;SDS011;67620;51.134;6.548;2023-05-07T13:45:12;3.80;;;2.47;;
78344;SDS011;67620;51.134;6.548;2023-05-07T13:47:39;3.35;;;2.50;;
78344;SDS011;67620;51.134;6.548;2023-05-07T13:50:05;4.20;;;2.78;;
78344;SDS011;67620;51.134;6.548;2023-05-07T13:52:32;5.30;;;2.80;;
78344;SDS011;67620;51.134;6.548;2023-05-07T13:54:57;4.80;;;2.65;;
78344;SDS011;67620;51.134;6.548;2023-05-07T13:57:23;4.22;;;2.47;;
78344;SDS011;67620;51.134;6.548;2023-05-07T13:59:49;6.50;;;2.70;;
78344;SDS011;67620;51.134;6.548;2023-05-07T14:02:15;3.95;;;2.60;;
78344;SDS011;67620;51.134;6.548;2023-05-07T14:04:40;6.35;;;2.63;;
78344;SDS011;67620;51.134;6.548;2023-05-07T14:07:06;3.08;;;1.90;;
78344;SDS011;67620;51.134;6.548;2023-05-07T14:11:58;3.72;;;1.95;;
78344;SDS011;67620;51.134;6.548;2023-05-07T14:14:23;5.32;;;2.30;;
78344;SDS011;67620;51.134;6.548;2023-05-07T14:16:49;5.63;;;2.30;;
78344;SDS011;67620;51.134;6.548;2023-05-07T14:19:15;5.45;;;2.55;;
78344;SDS011;67620;51.134;6.548;2023-05-07T14:21:40;5.43;;;2.63;;
78344;SDS011;67620;51.134;6.548;2023-05-07T14:24:06;3.95;;;2.85;;
78344;SDS011;67620;51.134;6.548;2023-05-07T14:26:33;5.40;;;3.20;;
78344;SDS011;67620;51.134;6.548;2023-05-07T14:28:59;3.92;;;2.50;;
78344;SDS011;67620;51.134;6.548;2023-05-07T14:31:25;4.18;;;2.75;;
78344;SDS011;67620;51.134;6.548;2023-05-07T14:33:51;5.45;;;2.83;;
78344;SDS011;67620;51.134;6.548;2023-05-07T14:36:17;4.97;;;2.97;;
78344;SDS011;67620;51.134;6.548;2023-05-07T14:38:45;4.53;;;3.08;;
78344;SDS011;67620;51.134;6.548;2023-05-07T14:41:11;6.03;;;3.03;;
78344;SDS011;67620;51.134;6.548;2023-05-07T14:43:36;5.63;;;3.65;;
78344;SDS011;67620;51.134;6.548;2023-05-07T14:46:02;6.63;;;3.50;;
78344;SDS011;67620;51.134;6.548;2023-05-07T14:48:27;6.95;;;3.42;;
78344;SDS011;67620;51.134;6.548;2023-05-07T14:50:53;4.82;;;3.10;;
78344;SDS011;67620;51.134;6.548;2023-05-07T14:53:18;6.80;;;3.58;;
78344;SDS011;67620;51.134;6.548;2023-05-07T14:55:44;9.50;;;3.72;;
78344;SDS011;67620;51.134;6.548;2023-05-07T14:58:10;11.30;;;3.50;;
78344;SDS011;67620;51.134;6.548;2023-05-07T15:00:36;5.80;;;3.30;;
78344;SDS011;67620;51.134;6.548;2023-05-07T15:03:04;5.03;;;3.13;;
78344;SDS011;67620;51.134;6.548;2023-05-07T15:05:32;5.35;;;3.03;;
78344;SDS011;67620;51.134;6.548;2023-05-07T15:07:58;5.82;;;3.30;;
78344;SDS011;67620;51.134;6.548;2023-05-07T15:10:24;4.65;;;3.33;;
78344;SDS011;67620;51.134;6.548;2023-05-07T15:12:49;5.05;;;3.20;;
78344;SDS011;67620;51.134;6.548;2023-05-07T15:15:15;5.85;;;3.80;;
78344;SDS011;67620;51.134;6.548;2023-05-07T15:17:41;4.30;;;2.70;;
78344;SDS011;67620;51.134;6.548;2023-05-07T15:20:06;6.45;;;3.33;;
78344;SDS011;67620;51.134;6.548;2023-05-07T15:22:32;5.38;;;3.35;;
78344;SDS011;67620;51.134;6.548;2023-05-07T15:24:58;3.58;;;2.80;;
78344;SDS011;67620;51.134;6.548;2023-05-07T15:27:24;5.32;;;3.30;;
78344;SDS011;67620;51.134;6.548;2023-05-07T15:29:49;4.95;;;3.33;;
78344;SDS011;67620;51.134;6.548;2023-05-07T15:32:15;4.07;;;3.40;;
78344;SDS011;67620;51.134;6.548;2023-05-07T15:34:41;4.70;;;3.03;;
78344;SDS011;67620;51.134;6.548;2023-05-07T15:37:06;5.95;;;3.28;;
78344;SDS011;67620;51.134;6.548;2023-05-07T15:39:32;4.80;;;3.53;;
78344;SDS011;67620;51.134;6.548;2023-05-07T15:41:57;4.25;;;3.30;;
78344;SDS011;67620;51.134;6.548;2023-05-07T15:44:23;4.45;;;3.90;;
78344;SDS011;67620;51.134;6.548;2023-05-07T15:46:52;5.95;;;3.75;;
78344;SDS011;67620;51.134;6.548;2023-05-07T15:49:18;4.65;;;3.30;;
78344;SDS011;67620;51.134;6.548;2023-05-07T15:51:43;6.90;;;3.58;;
78344;SDS011;67620;51.134;6.548;2023-05-07T15:54:09;5.10;;;3.20;;
78344;SDS011;67620;51.134;6.548;2023-05-07T15:56:34;5.13;;;3.35;;
78344;SDS011;67620;51.134;6.548;2023-05-07T15:59:00;4.53;;;3.92;;
78344;SDS011;67620;51.134;6.548;2023-05-07T16:01:26;6.75;;;3.67;;
78344;SDS011;67620;51.134;6.548;2023-05-07T16:03:52;4.82;;;3.63;;
78344;SDS011;67620;51.134;6.548;2023-05-07T16:06:17;4.82;;;3.38;;
78344;SDS011;67620;51.134;6.548;2023-05-07T16:11:09;5.05;;;3.22;;
78344;SDS011;67620;51.134;6.548;2023-05-07T16:13:34;3.85;;;3.33;;
78344;SDS011;67620;51.134;6.548;2023-05-07T16:16:03;5.07;;;3.67;;
78344;SDS011;67620;51.134;6.548;2023-05-07T16:18:30;4.40;;;3.22;;
78344;SDS011;67620;51.134;6.548;2023-05-07T16:20:55;5.53;;;3.47;;
78344;SDS011;67620;51.134;6.548;2023-05-07T16:23:21;4.57;;;2.97;;
78344;SDS011;67620;51.134;6.548;2023-05-07T16:25:48;4.35;;;3.30;;
78344;SDS011;67620;51.134;6.548;2023-05-07T16:28:14;6.53;;;3.30;;
78344;SDS011;67620;51.134;6.548;2023-05-07T16:30:39;7.50;;;3.95;;
78344;SDS011;67620;51.134;6.548;2023-05-07T16:33:06;3.90;;;2.97;;
78344;SDS011;67620;51.134;6.548;2023-05-07T16:35:32;5.20;;;3.30;;
78344;SDS011;67620;51.134;6.548;2023-05-07T16:37:57;4.30;;;2.90;;
78344;SDS011;67620;51.134;6.548;2023-05-07T16:40:23;5.22;;;3.50;;
78344;SDS011;67620;51.134;6.548;2023-05-07T16:42:48;5.72;;;3.38;;
78344;SDS011;67620;51.134;6.548;2023-05-07T16:45:14;4.97;;;3.33;;
78344;SDS011;67620;51.134;6.548;2023-05-07T16:47:40;5.57;;;3.63;;
78344;SDS011;67620;51.134;6.548;2023-05-07T16:50:05;4.13;;;3.70;;
78344;SDS011;67620;51.134;6.548;2023-05-07T16:52:31;6.78;;;4.00;;
78344;SDS011;67620;51.134;6.548;2023-05-07T16:57:25;6.43;;;3.92;;
78344;SDS011;67620;51.134;6.548;2023-05-07T16:59:52;7.28;;;3.50;;
78344;SDS011;67620;51.134;6.548;2023-05-07T17:02:19;4.85;;;3.88;;
78344;SDS011;67620;51.134;6.548;2023-05-07T17:04:45;9.00;;;4.60;;
78344;SDS011;67620;51.134;6.548;2023-05-07T17:07:10;6.95;;;4.63;;
78344;SDS011;67620;51.134;6.548;2023-05-07T17:12:02;9.73;;;5.20;;
78344;SDS011;67620;51.134;6.548;2023-05-07T17:16:53;5.78;;;4.30;;
78344;SDS011;67620;51.134;6.548;2023-05-07T17:21:44;5.72;;;4.55;;
78344;SDS011;67620;51.134;6.548;2023-05-07T17:26:35;5.05;;;3.72;;
78344;SDS011;67620;51.134;6.548;2023-05-07T17:29:03;5.95;;;4.10;;
78344;SDS011;67620;51.134;6.548;2023-05-07T17:31:28;5.18;;;3.85;;
78344;SDS011;67620;51.134;6.548;2023-05-07T17:33:54;9.05;;;4.72;;
78344;SDS011;67620;51.134;6.548;2023-05-07T17:38:45;7.93;;;4.72;;
78344;SDS011;67620;51.134;6.548;2023-05-07T17:41:10;7.40;;;4.82;;
78344;SDS011;67620;51.134;6.548;2023-05-07T17:46:01;5.47;;;4.50;;
78344;SDS011;67620;51.134;6.548;2023-05-07T17:48:27;7.05;;;4.55;;
78344;SDS011;67620;51.134;6.548;2023-05-07T17:53:18;6.65;;;5.03;;
78344;SDS011;67620;51.134;6.548;2023-05-07T17:58:09;6.85;;;5.30;;
78344;SDS011;67620;51.134;6.548;2023-05-07T18:00:35;7.07;;;5.30;;
78344;SDS011;67620;51.134;6.548;2023-05-07T18:05:27;8.10;;;6.50;;
78344;SDS011;67620;51.134;6.548;2023-05-07T18:07:53;6.65;;;4.80;;
78344;SDS011;67620;51.134;6.548;2023-05-07T18:10:19;6.03;;;5.40;;
78344;SDS011;67620;51.134;6.548;2023-05-07T18:15:10;8.32;;;5.55;;
78344;SDS011;67620;51.134;6.548;2023-05-07T18:17:36;7.50;;;6.07;;
78344;SDS011;67620;51.134;6.548;2023-05-07T18:22:29;8.38;;;5.80;;
78344;SDS011;67620;51.134;6.548;2023-05-07T18:24:55;7.95;;;5.88;;
78344;SDS011;67620;51.134;6.548;2023-05-07T18:27:20;7.32;;;5.85;;
78344;SDS011;67620;51.134;6.548;2023-05-07T18:32:11;10.27;;;6.55;;
78344;SDS011;67620;51.134;6.548;2023-05-07T18:37:03;7.53;;;5.95;;
78344;SDS011;67620;51.134;6.548;2023-05-07T18:41:55;6.78;;;6.07;;